PWSweather.com
Personal Weather Stations
Station Observations
NYERIN
South Erin, Erin, NY 14838-9545

South ErinErin, NY 14838-9545

Lat: 42.150605, Lon: -76.654038

Elevation: 1663

Station Type: Davis VP Pro II

http://southerin-ny.org/wx.php

Latest ConditionsUpdated 1:32:02 PM EDT Tuesday, Jul 28, 2015
Currently Today's Max Today's Min Today's Average
Temperature 80.3°F26.8°C 81.6°F27.6°C 61.6°F16.4°C 68.8°F20.4°C
Dew Point 65.7°F18.7°C 71.3°F21.8°C 61.5°F16.4°C 64.7°F18.2°C
Winds 0.6 mph NW1.0 kmh NW 2.6 mph W4.2 kmh W - 0.2 mph 0.3 kmh
Wind Gusts 4.0 mph6.4 kmh 4.0 mph6.4 kmh - -
Humidity 61% 100% 58% 88%
Pressure 29.97 in1014.9 mb 30.01 in1016.3 mb 29.97 in1014.9 mb -
Hour Temp Dew Point Humidity Winds Wind Gusts Pressure Precip Precip Rate Daily Precip Total
01:32 PM 80.3°F26.8°C 65.7°F18.7°C 61% 0.6 mph NW1.0 kmh NW 4.0 mph6.4 kmh 29.97 in1014.9 mb - 0.00 in0.0 mm 0.00 in0.0 mm
01:22 PM 81.4°F27.4°C 65.2°F18.4°C 58% 0.5 mph 0.8 kmh 4.0 mph6.4 kmh 29.98 in1015.2 mb - 0.00 in0.0 mm 0.00 in0.0 mm
01:12 PM 78.3°F25.7°C 69.4°F20.8°C 74% Calm Calm -- 29.98 in1015.2 mb - 0.00 in0.0 mm 0.00 in0.0 mm
01:02 PM 81.6°F27.6°C 69.1°F20.6°C 66% 1.9 mph W3.1 kmh W 3.0 mph4.8 kmh 29.99 in1015.6 mb - 0.00 in0.0 mm 0.00 in0.0 mm
12:52 PM 81.2°F27.3°C 71.3°F21.8°C 72% 1.6 mph W2.6 kmh W 3.0 mph4.8 kmh 29.99 in1015.6 mb - 0.00 in0.0 mm 0.00 in0.0 mm
12:42 PM 80.9°F27.2°C 66.7°F19.3°C 62% 2.0 mph W3.2 kmh W 4.0 mph6.4 kmh 29.99 in1015.6 mb - 0.00 in0.0 mm 0.00 in0.0 mm
12:32 PM 80.5°F26.9°C 67.7°F19.8°C 65% 0.5 mph NW0.8 kmh NW 2.0 mph3.2 kmh 29.99 in1015.6 mb - 0.00 in0.0 mm 0.00 in0.0 mm
12:22 PM 80.8°F27.1°C 66.5°F19.2°C 62% 0.9 mph W1.4 kmh W 3.0 mph4.8 kmh 29.99 in1015.6 mb - 0.00 in0.0 mm 0.00 in0.0 mm
12:12 PM 80.8°F27.1°C 66.1°F18.9°C 61% 1.2 mph WSW1.9 kmh WSW 2.0 mph3.2 kmh 29.99 in1015.6 mb - 0.00 in0.0 mm 0.00 in0.0 mm
12:02 PM 80.3°F26.8°C 66.6°F19.2°C 63% 0.3 mph WSW0.5 kmh WSW 2.0 mph3.2 kmh 30.00 in1015.9 mb - 0.00 in0.0 mm 0.00 in0.0 mm
11:52 AM 80.1°F26.7°C 67.7°F19.8°C 66% 0.3 mph WSW0.5 kmh WSW 2.0 mph3.2 kmh 30.00 in1015.9 mb - 0.00 in0.0 mm 0.00 in0.0 mm
11:42 AM 79.9°F26.6°C 68.4°F20.2°C 68% 1.2 mph WSW1.9 kmh WSW 2.0 mph3.2 kmh 30.00 in1015.9 mb - 0.00 in0.0 mm 0.00 in0.0 mm
11:32 AM 79.7°F26.5°C 65.6°F18.7°C 62% 1.0 mph WSW1.6 kmh WSW 2.0 mph3.2 kmh 30.00 in1015.9 mb - 0.00 in0.0 mm 0.00 in0.0 mm
11:22 AM 79.4°F26.3°C 69.6°F20.9°C 72% 0.7 mph WSW1.1 kmh WSW 3.0 mph4.8 kmh 30.00 in1015.9 mb - 0.00 in0.0 mm 0.00 in0.0 mm
11:12 AM 78.8°F26.0°C 69.0°F20.6°C 72% 0.1 mph SSW0.2 kmh SSW 2.0 mph3.2 kmh 30.00 in1015.9 mb - 0.00 in0.0 mm 0.00 in0.0 mm
11:02 AM 78.6°F25.9°C 70.0°F21.1°C 75% Calm Calm -- 30.00 in1015.9 mb - 0.00 in0.0 mm 0.00 in0.0 mm
10:52 AM 78.3°F25.7°C 69.4°F20.8°C 74% Calm Calm -- 30.00 in1015.9 mb - 0.00 in0.0 mm 0.00 in0.0 mm
10:42 AM 77.6°F25.3°C 67.9°F19.9°C 72% 2.6 mph W4.2 kmh W 3.0 mph4.8 kmh 30.00 in1015.9 mb - 0.00 in0.0 mm 0.00 in0.0 mm
10:32 AM 77.1°F25.1°C 67.8°F19.9°C 73% Calm Calm -- 30.00 in1015.9 mb - 0.00 in0.0 mm 0.00 in0.0 mm
10:22 AM 76.8°F24.9°C 67.1°F19.5°C 72% Calm Calm -- 30.00 in1015.9 mb - 0.00 in0.0 mm 0.00 in0.0 mm
10:12 AM 76.1°F24.5°C 68.0°F20.0°C 76% 0.6 mph WNW1.0 kmh WNW 3.0 mph4.8 kmh 30.00 in1015.9 mb - 0.00 in0.0 mm 0.00 in0.0 mm
10:02 AM 75.8°F24.3°C 66.9°F19.4°C 74% Calm Calm -- 30.00 in1015.9 mb - 0.00 in0.0 mm 0.00 in0.0 mm
09:52 AM 76.0°F24.4°C 68.6°F20.3°C 78% 1.0 mph WNW1.6 kmh WNW 2.0 mph3.2 kmh 30.00 in1015.9 mb - 0.00 in0.0 mm 0.00 in0.0 mm
09:42 AM 74.9°F23.8°C 69.0°F20.6°C 82% 0.1 mph WNW0.2 kmh WNW 1.0 mph1.6 kmh 30.01 in1016.3 mb - 0.00 in0.0 mm 0.00 in0.0 mm
09:32 AM 73.9°F23.3°C 69.4°F20.8°C 86% 0.1 mph WNW0.2 kmh WNW -- 30.01 in1016.3 mb - 0.00 in0.0 mm 0.00 in0.0 mm
09:22 AM 73.5°F23.1°C 70.4°F21.3°C 90% Calm Calm -- 30.01 in1016.3 mb - 0.00 in0.0 mm 0.00 in0.0 mm
09:12 AM 72.7°F22.6°C 68.3°F20.2°C 86% 0.5 mph WNW0.8 kmh WNW 1.0 mph1.6 kmh 30.00 in1015.9 mb - 0.00 in0.0 mm 0.00 in0.0 mm
09:02 AM 72.1°F22.3°C 69.0°F20.6°C 90% 0.8 mph NW1.3 kmh NW 1.0 mph1.6 kmh 30.01 in1016.3 mb - 0.00 in0.0 mm 0.00 in0.0 mm
08:52 AM 71.5°F21.9°C 69.1°F20.6°C 92% Calm Calm -- 30.01 in1016.3 mb - 0.00 in0.0 mm 0.00 in0.0 mm
08:42 AM 70.3°F21.3°C 68.5°F20.3°C 94% Calm Calm -- 30.00 in1015.9 mb - 0.00 in0.0 mm 0.00 in0.0 mm
08:32 AM 69.8°F21.0°C 68.0°F20.0°C 94% Calm Calm -- 30.01 in1016.3 mb - 0.00 in0.0 mm 0.00 in0.0 mm
08:22 AM 68.3°F20.2°C 67.8°F19.9°C 98% Calm Calm -- 30.01 in1016.3 mb - 0.00 in0.0 mm 0.00 in0.0 mm
08:12 AM 66.9°F19.4°C 66.9°F19.4°C 100% Calm Calm -- 30.01 in1016.3 mb - 0.00 in0.0 mm 0.00 in0.0 mm
08:02 AM 66.1°F18.9°C 66.1°F18.9°C 100% 0.1 mph NW0.2 kmh NW -- 30.01 in1016.3 mb - 0.00 in0.0 mm 0.00 in0.0 mm
07:52 AM 65.0°F18.3°C 65.0°F18.3°C 100% Calm Calm -- 30.01 in1016.3 mb - 0.00 in0.0 mm 0.00 in0.0 mm
07:42 AM 64.2°F17.9°C 64.2°F17.9°C 100% Calm Calm -- 30.01 in1016.3 mb - 0.00 in0.0 mm 0.00 in0.0 mm
07:32 AM 63.6°F17.6°C 63.6°F17.6°C 100% Calm Calm -- 30.01 in1016.3 mb - 0.00 in0.0 mm 0.00 in0.0 mm
07:22 AM 62.7°F17.1°C 62.7°F17.1°C 100% Calm Calm -- 30.00 in1015.9 mb - 0.00 in0.0 mm 0.00 in0.0 mm
07:12 AM 62.4°F16.9°C 62.4°F16.9°C 100% Calm Calm -- 30.00 in1015.9 mb - 0.00 in0.0 mm 0.00 in0.0 mm
07:02 AM 62.1°F16.7°C 62.1°F16.7°C 100% Calm Calm -- 30.01 in1016.3 mb - 0.00 in0.0 mm 0.00 in0.0 mm
06:52 AM 61.8°F16.6°C 61.8°F16.6°C 100% Calm Calm -- 30.00 in1015.9 mb - 0.00 in0.0 mm 0.00 in0.0 mm
06:42 AM 61.6°F16.4°C 61.6°F16.4°C 100% Calm Calm -- 30.00 in1015.9 mb - 0.00 in0.0 mm 0.00 in0.0 mm
06:32 AM 61.6°F16.4°C 61.6°F16.4°C 100% Calm Calm -- 30.00 in1015.9 mb - 0.00 in0.0 mm 0.00 in0.0 mm
06:22 AM 61.6°F16.4°C 61.6°F16.4°C 100% Calm Calm -- 30.00 in1015.9 mb - 0.00 in0.0 mm 0.00 in0.0 mm
06:12 AM 61.8°F16.6°C 61.8°F16.6°C 100% Calm Calm -- 30.00 in1015.9 mb - 0.00 in0.0 mm 0.00 in0.0 mm
06:02 AM 61.8°F16.6°C 61.8°F16.6°C 100% Calm Calm -- 30.00 in1015.9 mb - 0.00 in0.0 mm 0.00 in0.0 mm
05:52 AM 62.0°F16.7°C 62.0°F16.7°C 100% Calm Calm -- 29.99 in1015.6 mb - 0.00 in0.0 mm 0.00 in0.0 mm
05:42 AM 62.1°F16.7°C 62.1°F16.7°C 100% Calm Calm -- 29.99 in1015.6 mb - 0.00 in0.0 mm 0.00 in0.0 mm
05:32 AM 62.1°F16.7°C 62.1°F16.7°C 100% Calm Calm -- 29.99 in1015.6 mb - 0.00 in0.0 mm 0.00 in0.0 mm
05:22 AM 62.3°F16.8°C 62.3°F16.8°C 100% Calm Calm -- 29.99 in1015.6 mb - 0.00 in0.0 mm 0.00 in0.0 mm
05:12 AM 62.1°F16.7°C 62.1°F16.7°C 100% Calm Calm -- 29.99 in1015.6 mb - 0.00 in0.0 mm 0.00 in0.0 mm
05:02 AM 62.0°F16.7°C 62.0°F16.7°C 100% Calm Calm -- 29.99 in1015.6 mb - 0.00 in0.0 mm 0.00 in0.0 mm
04:52 AM 62.1°F16.7°C 62.1°F16.7°C 100% Calm Calm -- 29.99 in1015.6 mb - 0.00 in0.0 mm 0.00 in0.0 mm
04:42 AM 62.1°F16.7°C 61.8°F16.6°C 99% Calm Calm -- 29.99 in1015.6 mb - 0.00 in0.0 mm 0.00 in0.0 mm
04:32 AM 62.3°F16.8°C 62.0°F16.7°C 99% Calm Calm -- 29.99 in1015.6 mb - 0.00 in0.0 mm 0.00 in0.0 mm
04:22 AM 62.1°F16.7°C 61.8°F16.6°C 99% Calm Calm -- 29.99 in1015.6 mb - 0.00 in0.0 mm 0.00 in0.0 mm
04:12 AM 62.1°F16.7°C 61.5°F16.4°C 98% Calm Calm -- 29.99 in1015.6 mb - 0.00 in0.0 mm 0.00 in0.0 mm
04:02 AM 62.3°F16.8°C 61.7°F16.5°C 98% Calm Calm -- 29.99 in1015.6 mb - 0.00 in0.0 mm 0.00 in0.0 mm
03:52 AM 62.4°F16.9°C 61.8°F16.6°C 98% Calm Calm -- 30.00 in1015.9 mb - 0.00 in0.0 mm 0.00 in0.0 mm
03:42 AM 62.6°F17.0°C 61.7°F16.5°C 97% Calm Calm -- 29.99 in1015.6 mb - 0.00 in0.0 mm 0.00 in0.0 mm
03:32 AM 62.7°F17.1°C 61.8°F16.6°C 97% Calm Calm -- 29.99 in1015.6 mb - 0.00 in0.0 mm 0.00 in0.0 mm
03:22 AM 62.8°F17.1°C 61.9°F16.6°C 97% Calm Calm -- 30.00 in1015.9 mb - 0.00 in0.0 mm 0.00 in0.0 mm
03:12 AM 62.9°F17.2°C 61.7°F16.5°C 96% Calm Calm -- 30.00 in1015.9 mb - 0.00 in0.0 mm 0.00 in0.0 mm
03:02 AM 63.1°F17.3°C 61.9°F16.6°C 96% Calm Calm -- 30.00 in1015.9 mb - 0.00 in0.0 mm 0.00 in0.0 mm
02:52 AM 63.2°F17.3°C 62.0°F16.7°C 96% Calm Calm -- 30.00 in1015.9 mb - 0.00 in0.0 mm 0.00 in0.0 mm
02:42 AM 63.5°F17.5°C 62.3°F16.8°C 96% Calm Calm -- 30.00 in1015.9 mb - 0.00 in0.0 mm 0.00 in0.0 mm
02:32 AM 63.7°F17.6°C 62.2°F16.8°C 95% Calm Calm -- 30.00 in1015.9 mb - 0.00 in0.0 mm 0.00 in0.0 mm
02:22 AM 63.9°F17.7°C 62.4°F16.9°C 95% Calm Calm -- 30.00 in1015.9 mb - 0.00 in0.0 mm 0.00 in0.0 mm
02:12 AM 64.0°F17.8°C 62.2°F16.8°C 94% Calm Calm -- 30.00 in1015.9 mb - 0.00 in0.0 mm 0.00 in0.0 mm
02:02 AM 64.3°F17.9°C 62.5°F16.9°C 94% Calm Calm -- 30.00 in1015.9 mb - 0.00 in0.0 mm 0.00 in0.0 mm
01:52 AM 64.5°F18.1°C 62.4°F16.9°C 93% Calm Calm -- 30.00 in1015.9 mb - 0.00 in0.0 mm 0.00 in0.0 mm
01:42 AM 64.7°F18.2°C 62.6°F17.0°C 93% Calm Calm -- 30.00 in1015.9 mb - 0.00 in0.0 mm 0.00 in0.0 mm
01:32 AM 65.0°F18.3°C 62.9°F17.2°C 93% Calm Calm -- 30.00 in1015.9 mb - 0.00 in0.0 mm 0.00 in0.0 mm
01:22 AM 65.3°F18.5°C 63.5°F17.5°C 94% Calm Calm -- 30.00 in1015.9 mb - 0.00 in0.0 mm 0.00 in0.0 mm
01:12 AM 65.5°F18.6°C 63.7°F17.6°C 94% Calm Calm -- 30.00 in1015.9 mb - 0.00 in0.0 mm 0.00 in0.0 mm
01:02 AM 65.5°F18.6°C 63.4°F17.4°C 93% Calm Calm -- 30.00 in1015.9 mb - 0.00 in0.0 mm 0.00 in0.0 mm
12:52 AM 65.6°F18.7°C 63.2°F17.3°C 92% Calm Calm -- 30.00 in1015.9 mb - 0.00 in0.0 mm 0.00 in0.0 mm
12:42 AM 65.6°F18.7°C 62.9°F17.2°C 91% Calm Calm -- 30.00 in1015.9 mb - 0.00 in0.0 mm 0.00 in0.0 mm
12:32 AM 65.8°F18.8°C 63.1°F17.3°C 91% Calm Calm -- 30.00 in1015.9 mb - 0.00 in0.0 mm 0.00 in0.0 mm
12:22 AM 65.8°F18.8°C 62.8°F17.1°C 90% Calm Calm -- 30.00 in1015.9 mb - 0.00 in0.0 mm 0.00 in0.0 mm
12:12 AM 66.0°F18.9°C 63.0°F17.2°C 90% Calm Calm -- 30.00 in1015.9 mb - 0.00 in0.0 mm 0.00 in0.0 mm
12:02 AM 66.1°F18.9°C 63.1°F17.3°C 90% Calm Calm -- 29.99 in1015.6 mb - 0.00 in0.0 mm 0.00 in0.0 mm